sensor_id;sensor_type;location;lat;lon;timestamp;P1;durP1;ratioP1;P2;durP2;ratioP2
28431;SDS011;15664;51.302;7.744;2022-09-29T00:02:15;13.43;;;4.77;;
28431;SDS011;15664;51.302;7.744;2022-09-29T00:04:41;11.10;;;4.60;;
28431;SDS011;15664;51.302;7.744;2022-09-29T00:07:06;9.67;;;4.13;;
28431;SDS011;15664;51.302;7.744;2022-09-29T00:09:31;10.57;;;4.27;;
28431;SDS011;15664;51.302;7.744;2022-09-29T00:11:57;10.60;;;4.17;;
28431;SDS011;15664;51.302;7.744;2022-09-29T00:14:22;9.63;;;3.73;;
28431;SDS011;15664;51.302;7.744;2022-09-29T00:16:48;9.73;;;3.90;;
28431;SDS011;15664;51.302;7.744;2022-09-29T00:19:14;9.82;;;4.35;;
28431;SDS011;15664;51.302;7.744;2022-09-29T00:21:40;11.45;;;4.60;;
28431;SDS011;15664;51.302;7.744;2022-09-29T00:24:06;12.43;;;5.07;;
28431;SDS011;15664;51.302;7.744;2022-09-29T00:26:31;12.17;;;4.93;;
28431;SDS011;15664;51.302;7.744;2022-09-29T00:28:57;12.67;;;5.00;;
28431;SDS011;15664;51.302;7.744;2022-09-29T00:31:25;12.45;;;5.40;;
28431;SDS011;15664;51.302;7.744;2022-09-29T00:33:52;13.18;;;5.43;;
28431;SDS011;15664;51.302;7.744;2022-09-29T00:36:18;11.90;;;5.47;;
28431;SDS011;15664;51.302;7.744;2022-09-29T00:38:46;14.20;;;5.70;;
28431;SDS011;15664;51.302;7.744;2022-09-29T00:41:14;12.00;;;5.50;;
28431;SDS011;15664;51.302;7.744;2022-09-29T00:43:58;13.32;;;5.47;;
28431;SDS011;15664;51.302;7.744;2022-09-29T00:52:04;14.05;;;5.20;;
28431;SDS011;15664;51.302;7.744;2022-09-29T00:54:36;10.87;;;4.83;;
28431;SDS011;15664;51.302;7.744;2022-09-29T00:57:07;12.88;;;5.18;;
28431;SDS011;15664;51.302;7.744;2022-09-29T01:02:14;13.70;;;5.28;;
28431;SDS011;15664;51.302;7.744;2022-09-29T01:04:42;14.38;;;5.43;;
28431;SDS011;15664;51.302;7.744;2022-09-29T01:07:08;14.10;;;5.53;;
28431;SDS011;15664;51.302;7.744;2022-09-29T01:09:35;12.27;;;5.05;;
28431;SDS011;15664;51.302;7.744;2022-09-29T01:12:03;12.85;;;5.50;;
28431;SDS011;15664;51.302;7.744;2022-09-29T01:14:30;13.73;;;5.50;;
28431;SDS011;15664;51.302;7.744;2022-09-29T01:16:57;13.45;;;5.60;;
28431;SDS011;15664;51.302;7.744;2022-09-29T01:31:45;15.73;;;6.00;;
28431;SDS011;15664;51.302;7.744;2022-09-29T01:34:09;13.70;;;5.22;;
28431;SDS011;15664;51.302;7.744;2022-09-29T01:37:16;12.60;;;4.90;;
28431;SDS011;15664;51.302;7.744;2022-09-29T01:40:13;12.30;;;4.88;;
28431;SDS011;15664;51.302;7.744;2022-09-29T01:45:14;14.77;;;5.80;;
28431;SDS011;15664;51.302;7.744;2022-09-29T01:47:49;15.13;;;5.70;;
28431;SDS011;15664;51.302;7.744;2022-09-29T01:50:21;13.32;;;4.95;;
28431;SDS011;15664;51.302;7.744;2022-09-29T01:53:12;15.80;;;5.70;;
28431;SDS011;15664;51.302;7.744;2022-09-29T01:55:44;16.17;;;6.50;;
28431;SDS011;15664;51.302;7.744;2022-09-29T01:58:34;14.10;;;5.63;;
28431;SDS011;15664;51.302;7.744;2022-09-29T02:01:11;14.23;;;6.10;;
28431;SDS011;15664;51.302;7.744;2022-09-29T02:03:40;17.92;;;7.38;;
28431;SDS011;15664;51.302;7.744;2022-09-29T02:06:11;18.38;;;6.13;;
28431;SDS011;15664;51.302;7.744;2022-09-29T02:08:42;16.88;;;6.38;;
28431;SDS011;15664;51.302;7.744;2022-09-29T02:11:19;14.70;;;6.70;;
28431;SDS011;15664;51.302;7.744;2022-09-29T02:13:48;17.23;;;6.50;;
28431;SDS011;15664;51.302;7.744;2022-09-29T02:16:18;14.73;;;6.25;;
28431;SDS011;15664;51.302;7.744;2022-09-29T02:18:50;16.47;;;6.60;;
28431;SDS011;15664;51.302;7.744;2022-09-29T02:21:18;16.70;;;6.30;;
28431;SDS011;15664;51.302;7.744;2022-09-29T02:23:44;15.73;;;6.80;;
28431;SDS011;15664;51.302;7.744;2022-09-29T02:26:09;15.70;;;6.10;;
28431;SDS011;15664;51.302;7.744;2022-09-29T02:28:36;17.40;;;6.13;;
28431;SDS011;15664;51.302;7.744;2022-09-29T02:31:03;16.60;;;6.43;;
28431;SDS011;15664;51.302;7.744;2022-09-29T02:33:29;18.23;;;6.72;;
28431;SDS011;15664;51.302;7.744;2022-09-29T02:39:02;18.38;;;6.82;;
28431;SDS011;15664;51.302;7.744;2022-09-29T02:44:24;16.33;;;6.63;;
28431;SDS011;15664;51.302;7.744;2022-09-29T02:47:15;19.83;;;6.30;;
28431;SDS011;15664;51.302;7.744;2022-09-29T02:55:35;18.95;;;6.63;;
28431;SDS011;15664;51.302;7.744;2022-09-29T02:58:15;19.80;;;6.25;;
28431;SDS011;15664;51.302;7.744;2022-09-29T03:00:44;17.25;;;7.15;;
28431;SDS011;15664;51.302;7.744;2022-09-29T03:03:11;22.23;;;7.57;;
28431;SDS011;15664;51.302;7.744;2022-09-29T03:05:37;16.58;;;6.47;;
28431;SDS011;15664;51.302;7.744;2022-09-29T03:08:02;21.27;;;7.83;;
28431;SDS011;15664;51.302;7.744;2022-09-29T03:10:27;20.37;;;7.17;;
28431;SDS011;15664;51.302;7.744;2022-09-29T03:12:52;18.20;;;6.63;;
28431;SDS011;15664;51.302;7.744;2022-09-29T03:15:18;18.60;;;7.30;;
28431;SDS011;15664;51.302;7.744;2022-09-29T03:17:43;19.55;;;7.32;;
28431;SDS011;15664;51.302;7.744;2022-09-29T03:20:09;21.53;;;8.10;;
28431;SDS011;15664;51.302;7.744;2022-09-29T03:22:35;19.60;;;7.38;;
28431;SDS011;15664;51.302;7.744;2022-09-29T03:25:01;21.73;;;9.15;;
28431;SDS011;15664;51.302;7.744;2022-09-29T03:27:30;19.50;;;7.90;;
28431;SDS011;15664;51.302;7.744;2022-09-29T03:29:55;20.75;;;8.85;;
28431;SDS011;15664;51.302;7.744;2022-09-29T03:32:21;21.03;;;8.20;;
28431;SDS011;15664;51.302;7.744;2022-09-29T03:34:46;21.87;;;7.97;;
28431;SDS011;15664;51.302;7.744;2022-09-29T03:37:12;22.23;;;9.40;;
28431;SDS011;15664;51.302;7.744;2022-09-29T03:39:37;23.08;;;8.15;;
28431;SDS011;15664;51.302;7.744;2022-09-29T03:42:02;22.00;;;8.57;;
28431;SDS011;15664;51.302;7.744;2022-09-29T03:44:28;21.67;;;8.77;;
28431;SDS011;15664;51.302;7.744;2022-09-29T03:46:53;19.23;;;7.70;;
28431;SDS011;15664;51.302;7.744;2022-09-29T03:49:18;21.00;;;8.47;;
28431;SDS011;15664;51.302;7.744;2022-09-29T03:51:44;20.37;;;8.00;;
28431;SDS011;15664;51.302;7.744;2022-09-29T03:54:09;19.07;;;8.10;;
28431;SDS011;15664;51.302;7.744;2022-09-29T03:56:35;19.33;;;7.30;;
28431;SDS011;15664;51.302;7.744;2022-09-29T03:59:02;18.08;;;6.80;;
28431;SDS011;15664;51.302;7.744;2022-09-29T04:01:29;18.35;;;6.97;;
28431;SDS011;15664;51.302;7.744;2022-09-29T04:03:56;17.83;;;6.87;;
28431;SDS011;15664;51.302;7.744;2022-09-29T04:06:21;18.00;;;7.85;;
28431;SDS011;15664;51.302;7.744;2022-09-29T04:08:47;19.60;;;7.40;;
28431;SDS011;15664;51.302;7.744;2022-09-29T04:11:13;19.38;;;7.75;;
28431;SDS011;15664;51.302;7.744;2022-09-29T04:13:39;21.58;;;8.35;;
28431;SDS011;15664;51.302;7.744;2022-09-29T04:16:04;21.27;;;8.23;;
28431;SDS011;15664;51.302;7.744;2022-09-29T04:18:30;27.63;;;9.77;;
28431;SDS011;15664;51.302;7.744;2022-09-29T04:20:56;25.02;;;9.40;;
28431;SDS011;15664;51.302;7.744;2022-09-29T04:23:24;23.30;;;9.25;;
28431;SDS011;15664;51.302;7.744;2022-09-29T04:25:54;24.17;;;9.32;;
28431;SDS011;15664;51.302;7.744;2022-09-29T04:28:20;19.83;;;7.93;;
28431;SDS011;15664;51.302;7.744;2022-09-29T04:30:46;22.80;;;8.65;;
28431;SDS011;15664;51.302;7.744;2022-09-29T04:33:12;23.20;;;8.23;;
28431;SDS011;15664;51.302;7.744;2022-09-29T04:35:37;26.73;;;7.23;;
28431;SDS011;15664;51.302;7.744;2022-09-29T04:38:02;41.77;;;8.00;;
28431;SDS011;15664;51.302;7.744;2022-09-29T04:40:28;59.53;;;8.52;;
28431;SDS011;15664;51.302;7.744;2022-09-29T04:42:53;54.30;;;7.90;;
28431;SDS011;15664;51.302;7.744;2022-09-29T04:45:19;87.13;;;10.47;;
28431;SDS011;15664;51.302;7.744;2022-09-29T04:47:44;81.03;;;8.47;;
28431;SDS011;15664;51.302;7.744;2022-09-29T04:50:09;75.50;;;8.50;;
28431;SDS011;15664;51.302;7.744;2022-09-29T04:52:35;128.30;;;15.27;;
28431;SDS011;15664;51.302;7.744;2022-09-29T04:55:01;87.13;;;7.65;;
28431;SDS011;15664;51.302;7.744;2022-09-29T04:57:27;70.83;;;7.43;;
28431;SDS011;15664;51.302;7.744;2022-09-29T04:59:52;71.90;;;7.60;;
28431;SDS011;15664;51.302;7.744;2022-09-29T05:02:18;25.20;;;6.65;;
28431;SDS011;15664;51.302;7.744;2022-09-29T05:04:44;39.83;;;7.13;;
28431;SDS011;15664;51.302;7.744;2022-09-29T05:07:11;51.85;;;7.05;;
28431;SDS011;15664;51.302;7.744;2022-09-29T05:09:37;30.37;;;6.70;;
28431;SDS011;15664;51.302;7.744;2022-09-29T05:12:02;36.55;;;6.28;;
28431;SDS011;15664;51.302;7.744;2022-09-29T05:14:28;35.77;;;6.43;;
28431;SDS011;15664;51.302;7.744;2022-09-29T05:16:54;37.53;;;6.13;;
28431;SDS011;15664;51.302;7.744;2022-09-29T05:19:19;56.55;;;5.97;;
28431;SDS011;15664;51.302;7.744;2022-09-29T05:21:45;44.47;;;5.80;;
28431;SDS011;15664;51.302;7.744;2022-09-29T05:24:10;54.47;;;6.27;;
28431;SDS011;15664;51.302;7.744;2022-09-29T05:26:36;50.58;;;11.73;;
28431;SDS011;15664;51.302;7.744;2022-09-29T05:29:01;50.47;;;6.40;;
28431;SDS011;15664;51.302;7.744;2022-09-29T05:31:27;48.20;;;6.07;;
28431;SDS011;15664;51.302;7.744;2022-09-29T05:33:53;29.90;;;7.33;;
28431;SDS011;15664;51.302;7.744;2022-09-29T05:36:20;30.38;;;6.35;;
28431;SDS011;15664;51.302;7.744;2022-09-29T05:38:46;38.22;;;6.18;;
28431;SDS011;15664;51.302;7.744;2022-09-29T05:41:11;38.80;;;6.25;;
28431;SDS011;15664;51.302;7.744;2022-09-29T05:43:37;21.30;;;5.37;;
28431;SDS011;15664;51.302;7.744;2022-09-29T05:46:04;20.63;;;6.15;;
28431;SDS011;15664;51.302;7.744;2022-09-29T05:48:31;23.25;;;6.38;;
28431;SDS011;15664;51.302;7.744;2022-09-29T05:50:58;26.40;;;7.33;;
28431;SDS011;15664;51.302;7.744;2022-09-29T05:53:30;32.70;;;6.72;;
28431;SDS011;15664;51.302;7.744;2022-09-29T05:55:55;22.87;;;6.57;;
28431;SDS011;15664;51.302;7.744;2022-09-29T05:58:20;29.03;;;5.93;;
28431;SDS011;15664;51.302;7.744;2022-09-29T06:00:46;52.80;;;7.33;;
28431;SDS011;15664;51.302;7.744;2022-09-29T06:03:11;42.13;;;5.83;;
28431;SDS011;15664;51.302;7.744;2022-09-29T06:05:37;56.57;;;7.20;;
28431;SDS011;15664;51.302;7.744;2022-09-29T06:08:03;44.47;;;6.13;;
28431;SDS011;15664;51.302;7.744;2022-09-29T06:10:29;54.92;;;5.90;;
28431;SDS011;15664;51.302;7.744;2022-09-29T06:12:55;46.03;;;6.47;;
28431;SDS011;15664;51.302;7.744;2022-09-29T06:15:21;32.40;;;5.80;;
28431;SDS011;15664;51.302;7.744;2022-09-29T06:17:46;48.60;;;7.83;;
28431;SDS011;15664;51.302;7.744;2022-09-29T06:20:12;32.83;;;6.43;;
28431;SDS011;15664;51.302;7.744;2022-09-29T06:22:37;20.17;;;5.32;;
28431;SDS011;15664;51.302;7.744;2022-09-29T06:25:02;23.80;;;4.40;;
28431;SDS011;15664;51.302;7.744;2022-09-29T06:27:28;37.93;;;5.73;;
28431;SDS011;15664;51.302;7.744;2022-09-29T06:29:53;61.87;;;6.97;;
28431;SDS011;15664;51.302;7.744;2022-09-29T06:32:18;79.13;;;7.20;;
28431;SDS011;15664;51.302;7.744;2022-09-29T06:34:44;86.43;;;7.00;;
28431;SDS011;15664;51.302;7.744;2022-09-29T06:37:27;93.55;;;7.28;;
28431;SDS011;15664;51.302;7.744;2022-09-29T06:39:59;40.77;;;5.57;;
28431;SDS011;15664;51.302;7.744;2022-09-29T06:42:24;52.72;;;5.78;;
28431;SDS011;15664;51.302;7.744;2022-09-29T06:44:50;47.97;;;5.90;;
28431;SDS011;15664;51.302;7.744;2022-09-29T06:47:15;62.57;;;6.03;;
28431;SDS011;15664;51.302;7.744;2022-09-29T06:49:41;54.80;;;5.60;;
28431;SDS011;15664;51.302;7.744;2022-09-29T06:52:06;41.55;;;5.22;;
28431;SDS011;15664;51.302;7.744;2022-09-29T06:54:31;32.73;;;4.83;;
28431;SDS011;15664;51.302;7.744;2022-09-29T06:56:57;32.33;;;5.07;;
28431;SDS011;15664;51.302;7.744;2022-09-29T06:59:22;19.87;;;5.10;;
28431;SDS011;15664;51.302;7.744;2022-09-29T07:01:47;25.33;;;5.57;;
28431;SDS011;15664;51.302;7.744;2022-09-29T07:04:14;26.58;;;6.25;;
28431;SDS011;15664;51.302;7.744;2022-09-29T07:06:39;24.77;;;4.97;;
28431;SDS011;15664;51.302;7.744;2022-09-29T07:09:04;16.43;;;5.70;;
28431;SDS011;15664;51.302;7.744;2022-09-29T07:11:30;16.43;;;5.37;;
28431;SDS011;15664;51.302;7.744;2022-09-29T07:13:55;13.83;;;5.33;;
28431;SDS011;15664;51.302;7.744;2022-09-29T07:16:21;13.93;;;5.17;;
28431;SDS011;15664;51.302;7.744;2022-09-29T07:18:49;18.98;;;4.55;;
28431;SDS011;15664;51.302;7.744;2022-09-29T07:21:15;14.52;;;4.95;;
28431;SDS011;15664;51.302;7.744;2022-09-29T07:23:42;14.32;;;5.45;;
28431;SDS011;15664;51.302;7.744;2022-09-29T07:26:08;13.53;;;4.97;;
28431;SDS011;15664;51.302;7.744;2022-09-29T07:28:33;11.87;;;4.63;;
28431;SDS011;15664;51.302;7.744;2022-09-29T07:33:27;17.85;;;5.55;;
28431;SDS011;15664;51.302;7.744;2022-09-29T07:35:52;13.90;;;4.67;;
28431;SDS011;15664;51.302;7.744;2022-09-29T07:38:18;14.05;;;4.82;;
28431;SDS011;15664;51.302;7.744;2022-09-29T07:40:44;12.35;;;5.13;;
28431;SDS011;15664;51.302;7.744;2022-09-29T07:43:10;11.07;;;4.57;;
28431;SDS011;15664;51.302;7.744;2022-09-29T07:45:36;12.60;;;5.30;;
28431;SDS011;15664;51.302;7.744;2022-09-29T07:48:01;13.63;;;4.93;;
28431;SDS011;15664;51.302;7.744;2022-09-29T07:50:26;13.40;;;4.95;;
28431;SDS011;15664;51.302;7.744;2022-09-29T07:52:52;14.40;;;4.90;;
28431;SDS011;15664;51.302;7.744;2022-09-29T07:55:17;14.87;;;5.40;;
28431;SDS011;15664;51.302;7.744;2022-09-29T07:57:48;12.43;;;5.37;;
28431;SDS011;15664;51.302;7.744;2022-09-29T08:00:13;16.55;;;6.40;;
28431;SDS011;15664;51.302;7.744;2022-09-29T08:02:41;13.32;;;5.50;;
28431;SDS011;15664;51.302;7.744;2022-09-29T08:05:07;13.32;;;5.95;;
28431;SDS011;15664;51.302;7.744;2022-09-29T08:07:33;11.68;;;5.43;;
28431;SDS011;15664;51.302;7.744;2022-09-29T08:09:58;10.17;;;4.63;;
28431;SDS011;15664;51.302;7.744;2022-09-29T08:12:24;10.57;;;4.60;;
28431;SDS011;15664;51.302;7.744;2022-09-29T08:14:51;11.02;;;5.10;;
28431;SDS011;15664;51.302;7.744;2022-09-29T08:17:16;11.80;;;4.67;;
28431;SDS011;15664;51.302;7.744;2022-09-29T08:19:42;10.17;;;4.43;;
28431;SDS011;15664;51.302;7.744;2022-09-29T08:22:07;10.77;;;4.90;;
28431;SDS011;15664;51.302;7.744;2022-09-29T08:24:32;9.63;;;4.43;;
28431;SDS011;15664;51.302;7.744;2022-09-29T08:27:00;8.52;;;4.00;;
28431;SDS011;15664;51.302;7.744;2022-09-29T08:29:27;8.05;;;4.20;;
28431;SDS011;15664;51.302;7.744;2022-09-29T08:31:52;9.80;;;4.53;;
28431;SDS011;15664;51.302;7.744;2022-09-29T08:34:19;9.25;;;4.05;;
28431;SDS011;15664;51.302;7.744;2022-09-29T08:36:44;10.53;;;4.93;;
28431;SDS011;15664;51.302;7.744;2022-09-29T08:39:10;9.83;;;4.40;;
28431;SDS011;15664;51.302;7.744;2022-09-29T08:41:42;10.43;;;4.30;;
28431;SDS011;15664;51.302;7.744;2022-09-29T08:44:33;10.30;;;4.63;;
28431;SDS011;15664;51.302;7.744;2022-09-29T08:49:54;10.05;;;5.00;;
28431;SDS011;15664;51.302;7.744;2022-09-29T08:54:55;9.47;;;4.40;;
28431;SDS011;15664;51.302;7.744;2022-09-29T08:57:27;9.52;;;4.45;;
28431;SDS011;15664;51.302;7.744;2022-09-29T08:59:57;11.60;;;4.80;;
28431;SDS011;15664;51.302;7.744;2022-09-29T09:05:21;8.73;;;4.35;;
28431;SDS011;15664;51.302;7.744;2022-09-29T09:08:05;8.37;;;4.60;;
28431;SDS011;15664;51.302;7.744;2022-09-29T09:10:44;8.75;;;5.13;;
28431;SDS011;15664;51.302;7.744;2022-09-29T09:16:09;9.35;;;5.95;;
28431;SDS011;15664;51.302;7.744;2022-09-29T09:22:10;8.40;;;5.30;;
28431;SDS011;15664;51.302;7.744;2022-09-29T09:25:03;9.13;;;4.72;;
28431;SDS011;15664;51.302;7.744;2022-09-29T09:27:36;8.73;;;4.25;;
28431;SDS011;15664;51.302;7.744;2022-09-29T09:30:15;10.75;;;6.35;;
28431;SDS011;15664;51.302;7.744;2022-09-29T09:32:46;8.55;;;4.10;;
28431;SDS011;15664;51.302;7.744;2022-09-29T09:35:23;8.80;;;4.40;;
28431;SDS011;15664;51.302;7.744;2022-09-29T09:37:54;9.13;;;4.57;;
28431;SDS011;15664;51.302;7.744;2022-09-29T09:40:26;8.52;;;4.68;;
28431;SDS011;15664;51.302;7.744;2022-09-29T09:42:59;8.18;;;4.30;;
28431;SDS011;15664;51.302;7.744;2022-09-29T09:45:36;13.65;;;4.80;;
28431;SDS011;15664;51.302;7.744;2022-09-29T09:48:11;9.47;;;4.77;;
28431;SDS011;15664;51.302;7.744;2022-09-29T09:50:41;10.55;;;4.90;;
28431;SDS011;15664;51.302;7.744;2022-09-29T09:55:39;8.68;;;4.43;;
28431;SDS011;15664;51.302;7.744;2022-09-29T10:03:27;8.25;;;3.85;;
28431;SDS011;15664;51.302;7.744;2022-09-29T10:05:54;7.38;;;3.85;;
28431;SDS011;15664;51.302;7.744;2022-09-29T10:10:53;9.55;;;4.80;;
28431;SDS011;15664;51.302;7.744;2022-09-29T10:13:19;8.63;;;4.53;;
28431;SDS011;15664;51.302;7.744;2022-09-29T10:18:36;7.23;;;3.80;;
28431;SDS011;15664;51.302;7.744;2022-09-29T10:21:17;8.38;;;3.97;;
28431;SDS011;15664;51.302;7.744;2022-09-29T10:23:52;8.27;;;3.92;;
28431;SDS011;15664;51.302;7.744;2022-09-29T10:26:20;7.20;;;3.92;;
28431;SDS011;15664;51.302;7.744;2022-09-29T10:29:03;8.82;;;4.25;;
28431;SDS011;15664;51.302;7.744;2022-09-29T10:31:41;7.50;;;3.60;;
28431;SDS011;15664;51.302;7.744;2022-09-29T10:36:46;5.57;;;3.15;;
28431;SDS011;15664;51.302;7.744;2022-09-29T10:39:32;7.13;;;3.20;;
28431;SDS011;15664;51.302;7.744;2022-09-29T10:42:20;8.52;;;3.88;;
28431;SDS011;15664;51.302;7.744;2022-09-29T10:44:50;8.68;;;3.85;;
28431;SDS011;15664;51.302;7.744;2022-09-29T10:47:17;7.13;;;3.90;;
28431;SDS011;15664;51.302;7.744;2022-09-29T10:49:44;7.30;;;4.03;;
28431;SDS011;15664;51.302;7.744;2022-09-29T10:52:20;7.37;;;3.87;;
28431;SDS011;15664;51.302;7.744;2022-09-29T10:54:56;7.30;;;4.00;;
28431;SDS011;15664;51.302;7.744;2022-09-29T10:57:25;7.97;;;3.75;;
28431;SDS011;15664;51.302;7.744;2022-09-29T10:59:52;5.55;;;3.55;;
28431;SDS011;15664;51.302;7.744;2022-09-29T11:04:50;5.18;;;2.80;;
28431;SDS011;15664;51.302;7.744;2022-09-29T11:07:18;7.20;;;2.90;;
28431;SDS011;15664;51.302;7.744;2022-09-29T11:09:43;7.63;;;3.10;;
28431;SDS011;15664;51.302;7.744;2022-09-29T11:14:53;11.68;;;5.88;;
28431;SDS011;15664;51.302;7.744;2022-09-29T11:17:35;7.23;;;3.00;;
28431;SDS011;15664;51.302;7.744;2022-09-29T11:20:03;7.63;;;3.78;;
28431;SDS011;15664;51.302;7.744;2022-09-29T11:27:44;4.77;;;2.53;;
28431;SDS011;15664;51.302;7.744;2022-09-29T11:30:14;5.50;;;3.33;;
28431;SDS011;15664;51.302;7.744;2022-09-29T11:38:19;8.50;;;4.13;;
28431;SDS011;15664;51.302;7.744;2022-09-29T11:41:02;5.67;;;2.70;;
28431;SDS011;15664;51.302;7.744;2022-09-29T11:57:52;7.07;;;3.55;;
28431;SDS011;15664;51.302;7.744;2022-09-29T12:00:20;9.15;;;5.65;;
28431;SDS011;15664;51.302;7.744;2022-09-29T12:05:26;7.07;;;4.20;;
28431;SDS011;15664;51.302;7.744;2022-09-29T12:10:43;5.27;;;2.77;;
28431;SDS011;15664;51.302;7.744;2022-09-29T12:13:40;4.85;;;2.38;;
28431;SDS011;15664;51.302;7.744;2022-09-29T12:16:34;6.50;;;2.90;;
28431;SDS011;15664;51.302;7.744;2022-09-29T12:19:09;5.50;;;2.80;;
28431;SDS011;15664;51.302;7.744;2022-09-29T12:21:39;5.88;;;2.67;;
28431;SDS011;15664;51.302;7.744;2022-09-29T12:24:13;5.73;;;2.87;;
28431;SDS011;15664;51.302;7.744;2022-09-29T12:26:42;7.85;;;3.78;;
28431;SDS011;15664;51.302;7.744;2022-09-29T12:29:19;5.95;;;2.72;;
28431;SDS011;15664;51.302;7.744;2022-09-29T12:32:02;6.40;;;3.33;;
28431;SDS011;15664;51.302;7.744;2022-09-29T12:34:42;8.15;;;5.13;;
28431;SDS011;15664;51.302;7.744;2022-09-29T12:39:51;7.55;;;2.63;;
28431;SDS011;15664;51.302;7.744;2022-09-29T12:50:47;8.13;;;4.17;;
28431;SDS011;15664;51.302;7.744;2022-09-29T12:53:21;19.92;;;13.00;;
28431;SDS011;15664;51.302;7.744;2022-09-29T13:05:06;9.10;;;3.37;;
28431;SDS011;15664;51.302;7.744;2022-09-29T13:07:44;5.93;;;3.15;;
28431;SDS011;15664;51.302;7.744;2022-09-29T13:16:01;6.18;;;3.03;;
28431;SDS011;15664;51.302;7.744;2022-09-29T13:18:33;5.47;;;2.53;;
28431;SDS011;15664;51.302;7.744;2022-09-29T13:26:33;6.13;;;3.10;;
28431;SDS011;15664;51.302;7.744;2022-09-29T13:29:13;8.68;;;3.92;;
28431;SDS011;15664;51.302;7.744;2022-09-29T13:31:42;9.70;;;3.87;;
28431;SDS011;15664;51.302;7.744;2022-09-29T13:34:18;12.00;;;8.27;;
28431;SDS011;15664;51.302;7.744;2022-09-29T13:37:02;8.20;;;2.80;;
28431;SDS011;15664;51.302;7.744;2022-09-29T13:39:30;6.13;;;2.50;;
28431;SDS011;15664;51.302;7.744;2022-09-29T13:41:56;6.70;;;2.90;;
28431;SDS011;15664;51.302;7.744;2022-09-29T13:47:46;4.90;;;2.08;;
28431;SDS011;15664;51.302;7.744;2022-09-29T13:55:47;11.63;;;4.53;;
28431;SDS011;15664;51.302;7.744;2022-09-29T13:58:24;11.38;;;4.50;;
28431;SDS011;15664;51.302;7.744;2022-09-29T14:00:52;13.00;;;6.53;;
28431;SDS011;15664;51.302;7.744;2022-09-29T14:03:21;20.13;;;10.48;;
28431;SDS011;15664;51.302;7.744;2022-09-29T14:05:53;14.53;;;7.20;;
28431;SDS011;15664;51.302;7.744;2022-09-29T14:08:24;14.40;;;6.82;;
28431;SDS011;15664;51.302;7.744;2022-09-29T14:10:57;13.68;;;7.03;;
28431;SDS011;15664;51.302;7.744;2022-09-29T14:13:31;17.65;;;8.32;;
28431;SDS011;15664;51.302;7.744;2022-09-29T14:16:33;12.43;;;5.75;;
28431;SDS011;15664;51.302;7.744;2022-09-29T14:30:17;5.65;;;2.60;;
28431;SDS011;15664;51.302;7.744;2022-09-29T14:32:46;7.00;;;2.87;;
28431;SDS011;15664;51.302;7.744;2022-09-29T14:38:08;8.30;;;2.95;;
28431;SDS011;15664;51.302;7.744;2022-09-29T14:43:26;6.10;;;2.88;;
28431;SDS011;15664;51.302;7.744;2022-09-29T14:49:26;6.00;;;2.97;;
28431;SDS011;15664;51.302;7.744;2022-09-29T15:01:16;6.50;;;2.90;;
28431;SDS011;15664;51.302;7.744;2022-09-29T15:03:44;5.53;;;2.90;;
28431;SDS011;15664;51.302;7.744;2022-09-29T15:06:22;5.15;;;2.67;;
28431;SDS011;15664;51.302;7.744;2022-09-29T15:09:03;4.78;;;2.47;;
28431;SDS011;15664;51.302;7.744;2022-09-29T15:11:42;5.72;;;2.47;;
28431;SDS011;15664;51.302;7.744;2022-09-29T15:14:28;5.90;;;2.30;;
28431;SDS011;15664;51.302;7.744;2022-09-29T15:16:58;7.90;;;2.20;;
28431;SDS011;15664;51.302;7.744;2022-09-29T15:22:07;6.97;;;2.67;;
28431;SDS011;15664;51.302;7.744;2022-09-29T15:27:37;9.80;;;6.83;;
28431;SDS011;15664;51.302;7.744;2022-09-29T15:30:04;10.40;;;7.65;;
28431;SDS011;15664;51.302;7.744;2022-09-29T15:32:39;7.38;;;4.43;;
28431;SDS011;15664;51.302;7.744;2022-09-29T15:35:05;4.43;;;2.10;;
28431;SDS011;15664;51.302;7.744;2022-09-29T15:37:52;3.90;;;1.83;;
28431;SDS011;15664;51.302;7.744;2022-09-29T15:40:20;3.33;;;1.67;;
28431;SDS011;15664;51.302;7.744;2022-09-29T15:42:48;3.58;;;1.60;;
28431;SDS011;15664;51.302;7.744;2022-09-29T15:45:22;4.00;;;1.60;;
28431;SDS011;15664;51.302;7.744;2022-09-29T15:48:01;4.00;;;1.80;;
28431;SDS011;15664;51.302;7.744;2022-09-29T15:50:29;4.82;;;1.80;;
28431;SDS011;15664;51.302;7.744;2022-09-29T15:52:57;4.25;;;1.70;;
28431;SDS011;15664;51.302;7.744;2022-09-29T15:55:28;4.97;;;2.08;;
28431;SDS011;15664;51.302;7.744;2022-09-29T15:57:55;3.93;;;1.87;;
28431;SDS011;15664;51.302;7.744;2022-09-29T16:05:33;4.30;;;2.25;;
28431;SDS011;15664;51.302;7.744;2022-09-29T16:08:02;5.30;;;2.55;;
28431;SDS011;15664;51.302;7.744;2022-09-29T16:10:36;7.38;;;3.42;;
28431;SDS011;15664;51.302;7.744;2022-09-29T16:13:07;9.13;;;5.00;;
28431;SDS011;15664;51.302;7.744;2022-09-29T16:15:46;13.40;;;4.85;;
28431;SDS011;15664;51.302;7.744;2022-09-29T16:18:56;7.05;;;3.45;;
28431;SDS011;15664;51.302;7.744;2022-09-29T16:21:31;8.35;;;4.05;;
28431;SDS011;15664;51.302;7.744;2022-09-29T16:26:38;6.17;;;3.07;;
28431;SDS011;15664;51.302;7.744;2022-09-29T16:31:44;6.72;;;2.88;;
28431;SDS011;15664;51.302;7.744;2022-09-29T16:36:48;6.95;;;3.30;;
28431;SDS011;15664;51.302;7.744;2022-09-29T16:39:23;4.30;;;2.20;;
28431;SDS011;15664;51.302;7.744;2022-09-29T16:41:51;6.55;;;1.90;;
28431;SDS011;15664;51.302;7.744;2022-09-29T16:44:29;6.43;;;2.95;;
28431;SDS011;15664;51.302;7.744;2022-09-29T16:47:01;7.47;;;2.70;;
28431;SDS011;15664;51.302;7.744;2022-09-29T16:49:37;7.07;;;3.45;;
28431;SDS011;15664;51.302;7.744;2022-09-29T16:52:16;5.70;;;3.50;;
28431;SDS011;15664;51.302;7.744;2022-09-29T16:54:47;8.40;;;4.55;;
28431;SDS011;15664;51.302;7.744;2022-09-29T16:57:23;10.35;;;5.13;;
28431;SDS011;15664;51.302;7.744;2022-09-29T17:00:12;17.70;;;4.75;;
28431;SDS011;15664;51.302;7.744;2022-09-29T17:02:37;7.45;;;3.70;;
28431;SDS011;15664;51.302;7.744;2022-09-29T17:05:02;7.10;;;3.53;;
28431;SDS011;15664;51.302;7.744;2022-09-29T17:07:29;8.98;;;3.60;;
28431;SDS011;15664;51.302;7.744;2022-09-29T17:09:55;8.57;;;3.47;;
28431;SDS011;15664;51.302;7.744;2022-09-29T17:12:23;5.28;;;2.80;;
28431;SDS011;15664;51.302;7.744;2022-09-29T17:14:49;6.43;;;2.50;;
28431;SDS011;15664;51.302;7.744;2022-09-29T17:17:16;4.20;;;2.20;;
28431;SDS011;15664;51.302;7.744;2022-09-29T17:19:43;4.22;;;2.00;;
28431;SDS011;15664;51.302;7.744;2022-09-29T17:24:54;7.90;;;3.17;;
28431;SDS011;15664;51.302;7.744;2022-09-29T17:27:20;6.15;;;2.92;;
28431;SDS011;15664;51.302;7.744;2022-09-29T17:30:05;7.70;;;3.25;;
28431;SDS011;15664;51.302;7.744;2022-09-29T17:32:31;8.87;;;3.23;;
28431;SDS011;15664;51.302;7.744;2022-09-29T17:34:56;7.15;;;3.45;;
28431;SDS011;15664;51.302;7.744;2022-09-29T17:37:22;8.57;;;4.43;;
28431;SDS011;15664;51.302;7.744;2022-09-29T17:39:47;7.23;;;3.80;;
28431;SDS011;15664;51.302;7.744;2022-09-29T17:42:13;8.17;;;4.10;;
28431;SDS011;15664;51.302;7.744;2022-09-29T17:44:38;12.63;;;4.13;;
28431;SDS011;15664;51.302;7.744;2022-09-29T17:47:09;8.20;;;3.90;;
28431;SDS011;15664;51.302;7.744;2022-09-29T17:49:39;8.75;;;4.10;;
28431;SDS011;15664;51.302;7.744;2022-09-29T17:52:05;19.95;;;7.22;;
28431;SDS011;15664;51.302;7.744;2022-09-29T17:54:31;17.92;;;7.07;;
28431;SDS011;15664;51.302;7.744;2022-09-29T17:56:59;14.40;;;7.03;;
28431;SDS011;15664;51.302;7.744;2022-09-29T17:59:24;12.90;;;5.90;;
28431;SDS011;15664;51.302;7.744;2022-09-29T18:01:50;13.13;;;6.60;;
28431;SDS011;15664;51.302;7.744;2022-09-29T18:04:15;13.17;;;5.30;;
28431;SDS011;15664;51.302;7.744;2022-09-29T18:06:40;11.73;;;5.63;;
28431;SDS011;15664;51.302;7.744;2022-09-29T18:09:12;12.35;;;6.93;;